sensor_id;sensor_type;location;lat;lon;timestamp;temperature;humidity
37996;DHT22;23808;50.634;6.948;2022-07-17T00:00:36;15.10;90.30
37996;DHT22;23808;50.634;6.948;2022-07-17T00:04:40;15.10;90.90
37996;DHT22;23808;50.634;6.948;2022-07-17T00:08:41;15.00;91.60
37996;DHT22;23808;50.634;6.948;2022-07-17T00:12:41;14.90;92.00
37996;DHT22;23808;50.634;6.948;2022-07-17T00:16:42;14.80;92.20
37996;DHT22;23808;50.634;6.948;2022-07-17T00:20:43;14.70;92.60
37996;DHT22;23808;50.634;6.948;2022-07-17T00:24:46;14.60;93.00
37996;DHT22;23808;50.634;6.948;2022-07-17T00:28:47;14.60;93.40
37996;DHT22;23808;50.634;6.948;2022-07-17T00:32:47;14.50;93.80
37996;DHT22;23808;50.634;6.948;2022-07-17T00:36:48;14.40;94.30
37996;DHT22;23808;50.634;6.948;2022-07-17T00:40:49;14.40;94.60
37996;DHT22;23808;50.634;6.948;2022-07-17T00:44:49;14.30;95.10
37996;DHT22;23808;50.634;6.948;2022-07-17T00:48:50;14.20;95.30
37996;DHT22;23808;50.634;6.948;2022-07-17T00:52:50;14.20;95.80
37996;DHT22;23808;50.634;6.948;2022-07-17T00:56:51;14.10;96.40
37996;DHT22;23808;50.634;6.948;2022-07-17T01:00:54;14.00;96.60
37996;DHT22;23808;50.634;6.948;2022-07-17T01:04:54;13.90;96.80
37996;DHT22;23808;50.634;6.948;2022-07-17T01:08:55;13.90;97.00
37996;DHT22;23808;50.634;6.948;2022-07-17T01:12:56;13.80;97.40
37996;DHT22;23808;50.634;6.948;2022-07-17T01:16:56;13.80;97.50
37996;DHT22;23808;50.634;6.948;2022-07-17T01:21:03;13.70;97.70
37996;DHT22;23808;50.634;6.948;2022-07-17T01:25:04;13.70;98.20
37996;DHT22;23808;50.634;6.948;2022-07-17T01:29:05;13.60;98.40
37996;DHT22;23808;50.634;6.948;2022-07-17T01:33:06;13.50;98.60
37996;DHT22;23808;50.634;6.948;2022-07-17T01:37:07;13.50;98.70
37996;DHT22;23808;50.634;6.948;2022-07-17T01:41:07;13.50;99.10
37996;DHT22;23808;50.634;6.948;2022-07-17T01:45:08;13.40;99.10
37996;DHT22;23808;50.634;6.948;2022-07-17T01:49:09;13.40;98.90
37996;DHT22;23808;50.634;6.948;2022-07-17T01:53:10;13.30;99.20
37996;DHT22;23808;50.634;6.948;2022-07-17T01:57:11;13.30;99.40
37996;DHT22;23808;50.634;6.948;2022-07-17T02:01:12;13.20;99.50
37996;DHT22;23808;50.634;6.948;2022-07-17T02:05:13;13.20;99.40
37996;DHT22;23808;50.634;6.948;2022-07-17T02:09:14;13.20;99.40
37996;DHT22;23808;50.634;6.948;2022-07-17T02:13:14;13.10;99.50
37996;DHT22;23808;50.634;6.948;2022-07-17T02:17:15;13.10;99.60
37996;DHT22;23808;50.634;6.948;2022-07-17T02:21:15;13.10;99.80
37996;DHT22;23808;50.634;6.948;2022-07-17T02:25:16;13.00;99.90
37996;DHT22;23808;50.634;6.948;2022-07-17T02:29:17;12.90;99.90
37996;DHT22;23808;50.634;6.948;2022-07-17T02:33:18;12.90;99.90
37996;DHT22;23808;50.634;6.948;2022-07-17T02:37:18;12.90;99.90
37996;DHT22;23808;50.634;6.948;2022-07-17T02:41:19;12.80;99.90
37996;DHT22;23808;50.634;6.948;2022-07-17T02:45:20;12.70;99.90
37996;DHT22;23808;50.634;6.948;2022-07-17T02:49:24;12.70;99.90
37996;DHT22;23808;50.634;6.948;2022-07-17T02:53:25;12.70;99.90
37996;DHT22;23808;50.634;6.948;2022-07-17T02:57:26;12.60;99.90
37996;DHT22;23808;50.634;6.948;2022-07-17T03:01:26;12.60;99.90
37996;DHT22;23808;50.634;6.948;2022-07-17T03:05:27;12.60;99.90
37996;DHT22;23808;50.634;6.948;2022-07-17T03:09:28;12.60;99.90
37996;DHT22;23808;50.634;6.948;2022-07-17T03:13:28;12.60;99.90
37996;DHT22;23808;50.634;6.948;2022-07-17T03:17:29;12.60;99.90
37996;DHT22;23808;50.634;6.948;2022-07-17T03:21:29;12.60;99.90
37996;DHT22;23808;50.634;6.948;2022-07-17T03:25:30;12.50;99.90
37996;DHT22;23808;50.634;6.948;2022-07-17T03:29:31;12.50;99.90
37996;DHT22;23808;50.634;6.948;2022-07-17T03:33:31;12.50;99.90
37996;DHT22;23808;50.634;6.948;2022-07-17T03:37:32;12.50;99.90
37996;DHT22;23808;50.634;6.948;2022-07-17T03:41:33;12.40;99.90
37996;DHT22;23808;50.634;6.948;2022-07-17T03:45:33;12.50;99.90
37996;DHT22;23808;50.634;6.948;2022-07-17T03:49:34;12.50;99.90
37996;DHT22;23808;50.634;6.948;2022-07-17T03:53:35;12.50;99.90
37996;DHT22;23808;50.634;6.948;2022-07-17T03:57:35;12.40;99.90
37996;DHT22;23808;50.634;6.948;2022-07-17T04:01:36;12.40;99.90
37996;DHT22;23808;50.634;6.948;2022-07-17T04:05:37;12.40;99.90
37996;DHT22;23808;50.634;6.948;2022-07-17T04:09:37;12.40;99.90
37996;DHT22;23808;50.634;6.948;2022-07-17T04:13:38;12.30;99.90
37996;DHT22;23808;50.634;6.948;2022-07-17T04:17:39;12.30;99.90
37996;DHT22;23808;50.634;6.948;2022-07-17T04:21:39;12.20;99.90
37996;DHT22;23808;50.634;6.948;2022-07-17T04:25:41;12.20;99.90
37996;DHT22;23808;50.634;6.948;2022-07-17T04:29:42;12.20;99.90
37996;DHT22;23808;50.634;6.948;2022-07-17T04:33:43;12.10;99.90
37996;DHT22;23808;50.634;6.948;2022-07-17T04:37:43;12.10;99.90
37996;DHT22;23808;50.634;6.948;2022-07-17T04:41:44;12.20;99.90
37996;DHT22;23808;50.634;6.948;2022-07-17T04:45:45;12.30;99.90
37996;DHT22;23808;50.634;6.948;2022-07-17T04:49:45;12.40;99.90
37996;DHT22;23808;50.634;6.948;2022-07-17T04:53:46;12.60;99.90
37996;DHT22;23808;50.634;6.948;2022-07-17T04:57:46;12.70;99.90
37996;DHT22;23808;50.634;6.948;2022-07-17T05:01:47;13.00;99.90
37996;DHT22;23808;50.634;6.948;2022-07-17T05:05:47;13.20;99.90
37996;DHT22;23808;50.634;6.948;2022-07-17T05:09:48;13.40;99.90
37996;DHT22;23808;50.634;6.948;2022-07-17T05:13:48;13.60;99.90
37996;DHT22;23808;50.634;6.948;2022-07-17T05:17:49;13.80;99.90
37996;DHT22;23808;50.634;6.948;2022-07-17T05:21:50;14.00;99.50
37996;DHT22;23808;50.634;6.948;2022-07-17T05:25:51;14.30;99.10
37996;DHT22;23808;50.634;6.948;2022-07-17T05:29:51;14.50;98.80
37996;DHT22;23808;50.634;6.948;2022-07-17T05:33:52;14.70;98.70
37996;DHT22;23808;50.634;6.948;2022-07-17T05:37:53;14.90;98.60
37996;DHT22;23808;50.634;6.948;2022-07-17T05:41:54;15.10;98.60
37996;DHT22;23808;50.634;6.948;2022-07-17T05:45:58;15.30;98.70
37996;DHT22;23808;50.634;6.948;2022-07-17T05:49:59;15.40;98.10
37996;DHT22;23808;50.634;6.948;2022-07-17T05:53:59;15.60;97.90
37996;DHT22;23808;50.634;6.948;2022-07-17T05:58:00;15.80;97.70
37996;DHT22;23808;50.634;6.948;2022-07-17T06:02:00;16.00;97.30
37996;DHT22;23808;50.634;6.948;2022-07-17T06:06:01;16.10;96.70
37996;DHT22;23808;50.634;6.948;2022-07-17T06:10:02;16.30;96.50
37996;DHT22;23808;50.634;6.948;2022-07-17T06:14:03;16.50;95.30
37996;DHT22;23808;50.634;6.948;2022-07-17T06:18:04;16.70;95.50
37996;DHT22;23808;50.634;6.948;2022-07-17T06:22:05;16.90;95.10
37996;DHT22;23808;50.634;6.948;2022-07-17T06:26:05;17.20;94.00
37996;DHT22;23808;50.634;6.948;2022-07-17T06:30:08;17.40;94.30
37996;DHT22;23808;50.634;6.948;2022-07-17T06:34:09;17.80;94.20
37996;DHT22;23808;50.634;6.948;2022-07-17T06:38:10;18.30;93.50
37996;DHT22;23808;50.634;6.948;2022-07-17T06:42:11;18.70;92.60
37996;DHT22;23808;50.634;6.948;2022-07-17T06:46:11;19.10;91.90
37996;DHT22;23808;50.634;6.948;2022-07-17T06:50:12;19.60;91.20
37996;DHT22;23808;50.634;6.948;2022-07-17T06:54:13;20.00;90.20
37996;DHT22;23808;50.634;6.948;2022-07-17T06:58:14;20.30;89.00
37996;DHT22;23808;50.634;6.948;2022-07-17T07:02:14;20.60;87.80
37996;DHT22;23808;50.634;6.948;2022-07-17T07:06:15;20.80;85.50
37996;DHT22;23808;50.634;6.948;2022-07-17T07:10:15;21.00;85.00
37996;DHT22;23808;50.634;6.948;2022-07-17T07:14:16;21.30;84.30
37996;DHT22;23808;50.634;6.948;2022-07-17T07:18:17;21.50;81.40
37996;DHT22;23808;50.634;6.948;2022-07-17T07:22:17;21.40;81.20
37996;DHT22;23808;50.634;6.948;2022-07-17T07:26:18;21.60;80.80
37996;DHT22;23808;50.634;6.948;2022-07-17T07:30:18;21.70;80.30
37996;DHT22;23808;50.634;6.948;2022-07-17T07:34:19;21.90;79.20
37996;DHT22;23808;50.634;6.948;2022-07-17T07:38:20;22.20;77.90
37996;DHT22;23808;50.634;6.948;2022-07-17T07:42:20;22.20;77.40
37996;DHT22;23808;50.634;6.948;2022-07-17T07:46:21;22.30;77.20
37996;DHT22;23808;50.634;6.948;2022-07-17T07:50:23;22.60;76.50
37996;DHT22;23808;50.634;6.948;2022-07-17T07:54:24;22.60;75.60
37996;DHT22;23808;50.634;6.948;2022-07-17T07:58:24;22.80;75.30
37996;DHT22;23808;50.634;6.948;2022-07-17T08:02:25;23.00;74.70
37996;DHT22;23808;50.634;6.948;2022-07-17T08:06:26;23.10;74.00
37996;DHT22;23808;50.634;6.948;2022-07-17T08:10:26;23.30;74.00
37996;DHT22;23808;50.634;6.948;2022-07-17T08:14:27;23.50;73.60
37996;DHT22;23808;50.634;6.948;2022-07-17T08:18:28;23.50;73.10
37996;DHT22;23808;50.634;6.948;2022-07-17T08:22:29;23.70;72.00
37996;DHT22;23808;50.634;6.948;2022-07-17T08:26:29;24.00;71.50
37996;DHT22;23808;50.634;6.948;2022-07-17T08:30:30;24.20;69.50
37996;DHT22;23808;50.634;6.948;2022-07-17T08:34:35;24.30;67.90
37996;DHT22;23808;50.634;6.948;2022-07-17T08:38:35;24.40;66.80
37996;DHT22;23808;50.634;6.948;2022-07-17T08:42:36;24.50;65.50
37996;DHT22;23808;50.634;6.948;2022-07-17T08:46:43;24.30;64.30
37996;DHT22;23808;50.634;6.948;2022-07-17T08:50:45;24.30;65.30
37996;DHT22;23808;50.634;6.948;2022-07-17T08:54:45;24.40;63.40
37996;DHT22;23808;50.634;6.948;2022-07-17T08:58:46;24.50;64.20
37996;DHT22;23808;50.634;6.948;2022-07-17T09:03:03;24.70;63.60
37996;DHT22;23808;50.634;6.948;2022-07-17T09:07:04;25.00;63.60
37996;DHT22;23808;50.634;6.948;2022-07-17T09:11:05;25.20;62.90
37996;DHT22;23808;50.634;6.948;2022-07-17T09:15:18;25.40;62.00
37996;DHT22;23808;50.634;6.948;2022-07-17T09:19:31;25.70;61.30
37996;DHT22;23808;50.634;6.948;2022-07-17T09:23:31;25.80;60.00
37996;DHT22;23808;50.634;6.948;2022-07-17T09:27:33;26.00;60.20
37996;DHT22;23808;50.634;6.948;2022-07-17T09:31:34;26.10;60.40
37996;DHT22;23808;50.634;6.948;2022-07-17T09:35:34;26.30;59.30
37996;DHT22;23808;50.634;6.948;2022-07-17T09:39:36;26.40;59.10
37996;DHT22;23808;50.634;6.948;2022-07-17T09:47:40;26.90;58.00
37996;DHT22;23808;50.634;6.948;2022-07-17T09:51:41;26.80;57.90
37996;DHT22;23808;50.634;6.948;2022-07-17T09:55:42;27.00;58.70
37996;DHT22;23808;50.634;6.948;2022-07-17T09:59:44;27.40;57.90
37996;DHT22;23808;50.634;6.948;2022-07-17T10:03:46;27.60;56.00
37996;DHT22;23808;50.634;6.948;2022-07-17T10:07:49;27.40;57.10
37996;DHT22;23808;50.634;6.948;2022-07-17T10:11:50;27.80;56.30
37996;DHT22;23808;50.634;6.948;2022-07-17T10:15:51;28.20;55.30
37996;DHT22;23808;50.634;6.948;2022-07-17T10:19:55;28.50;53.40
37996;DHT22;23808;50.634;6.948;2022-07-17T10:27:57;29.30;54.00
37996;DHT22;23808;50.634;6.948;2022-07-17T10:31:59;29.60;52.50
37996;DHT22;23808;50.634;6.948;2022-07-17T10:36:00;29.70;53.70
37996;DHT22;23808;50.634;6.948;2022-07-17T10:40:21;29.80;52.80
37996;DHT22;23808;50.634;6.948;2022-07-17T10:44:26;30.20;52.60
37996;DHT22;23808;50.634;6.948;2022-07-17T10:48:30;30.30;51.70
37996;DHT22;23808;50.634;6.948;2022-07-17T10:52:30;30.40;52.40
37996;DHT22;23808;50.634;6.948;2022-07-17T10:56:31;30.70;51.70
37996;DHT22;23808;50.634;6.948;2022-07-17T11:00:32;30.70;50.40
37996;DHT22;23808;50.634;6.948;2022-07-17T11:04:36;30.90;51.20
37996;DHT22;23808;50.634;6.948;2022-07-17T11:08:45;31.30;50.40
37996;DHT22;23808;50.634;6.948;2022-07-17T11:12:46;31.30;51.30
37996;DHT22;23808;50.634;6.948;2022-07-17T11:16:57;31.10;51.20
37996;DHT22;23808;50.634;6.948;2022-07-17T11:21:00;31.00;50.30
37996;DHT22;23808;50.634;6.948;2022-07-17T11:25:04;30.60;50.80
37996;DHT22;23808;50.634;6.948;2022-07-17T11:29:05;30.60;51.10
37996;DHT22;23808;50.634;6.948;2022-07-17T11:33:15;30.50;50.40
37996;DHT22;23808;50.634;6.948;2022-07-17T11:37:15;30.70;49.90
37996;DHT22;23808;50.634;6.948;2022-07-17T11:41:17;30.80;49.70
37996;DHT22;23808;50.634;6.948;2022-07-17T11:45:20;31.00;50.70
37996;DHT22;23808;50.634;6.948;2022-07-17T11:49:29;31.40;49.90
37996;DHT22;23808;50.634;6.948;2022-07-17T11:53:35;32.10;48.70
37996;DHT22;23808;50.634;6.948;2022-07-17T11:57:49;32.30;46.10
37996;DHT22;23808;50.634;6.948;2022-07-17T12:01:50;32.00;46.90
37996;DHT22;23808;50.634;6.948;2022-07-17T12:05:51;32.10;46.70
37996;DHT22;23808;50.634;6.948;2022-07-17T12:09:53;32.20;46.50
37996;DHT22;23808;50.634;6.948;2022-07-17T12:13:53;32.60;46.40
37996;DHT22;23808;50.634;6.948;2022-07-17T12:17:54;33.00;45.20
37996;DHT22;23808;50.634;6.948;2022-07-17T12:22:04;33.50;44.80
37996;DHT22;23808;50.634;6.948;2022-07-17T12:30:08;33.80;44.20
37996;DHT22;23808;50.634;6.948;2022-07-17T12:34:09;33.80;43.30
37996;DHT22;23808;50.634;6.948;2022-07-17T12:38:09;33.40;44.40
37996;DHT22;23808;50.634;6.948;2022-07-17T12:42:10;33.20;45.40
37996;DHT22;23808;50.634;6.948;2022-07-17T12:46:11;33.20;44.40
37996;DHT22;23808;50.634;6.948;2022-07-17T12:50:11;33.20;43.60
37996;DHT22;23808;50.634;6.948;2022-07-17T12:54:12;33.00;44.00
37996;DHT22;23808;50.634;6.948;2022-07-17T12:58:13;33.20;43.20
37996;DHT22;23808;50.634;6.948;2022-07-17T13:02:13;33.20;43.10
37996;DHT22;23808;50.634;6.948;2022-07-17T13:06:14;33.00;43.20
37996;DHT22;23808;50.634;6.948;2022-07-17T13:10:15;32.90;42.90
37996;DHT22;23808;50.634;6.948;2022-07-17T13:14:16;33.20;42.90
37996;DHT22;23808;50.634;6.948;2022-07-17T13:18:17;33.50;42.90
37996;DHT22;23808;50.634;6.948;2022-07-17T13:22:17;33.90;42.80
37996;DHT22;23808;50.634;6.948;2022-07-17T13:26:18;34.00;42.80
37996;DHT22;23808;50.634;6.948;2022-07-17T13:30:18;33.60;43.50
37996;DHT22;23808;50.634;6.948;2022-07-17T13:34:20;33.10;43.60
37996;DHT22;23808;50.634;6.948;2022-07-17T13:38:21;32.60;43.20
37996;DHT22;23808;50.634;6.948;2022-07-17T13:42:21;32.50;44.80
37996;DHT22;23808;50.634;6.948;2022-07-17T13:46:22;32.90;43.90
37996;DHT22;23808;50.634;6.948;2022-07-17T13:50:23;33.30;44.70
37996;DHT22;23808;50.634;6.948;2022-07-17T13:54:24;33.80;43.50
37996;DHT22;23808;50.634;6.948;2022-07-17T13:58:25;34.20;43.40
37996;DHT22;23808;50.634;6.948;2022-07-17T14:02:26;34.40;43.50
37996;DHT22;23808;50.634;6.948;2022-07-17T14:06:27;34.40;41.50
37996;DHT22;23808;50.634;6.948;2022-07-17T14:10:28;34.50;41.00
37996;DHT22;23808;50.634;6.948;2022-07-17T14:14:30;34.50;42.10
37996;DHT22;23808;50.634;6.948;2022-07-17T14:18:31;34.50;41.50
37996;DHT22;23808;50.634;6.948;2022-07-17T14:22:31;34.30;42.60
37996;DHT22;23808;50.634;6.948;2022-07-17T14:26:32;34.10;42.20
37996;DHT22;23808;50.634;6.948;2022-07-17T14:30:33;34.20;42.40
37996;DHT22;23808;50.634;6.948;2022-07-17T14:34:35;34.20;41.80
37996;DHT22;23808;50.634;6.948;2022-07-17T14:38:36;34.10;42.00
37996;DHT22;23808;50.634;6.948;2022-07-17T14:42:36;34.20;41.60
37996;DHT22;23808;50.634;6.948;2022-07-17T14:46:37;34.20;40.40
37996;DHT22;23808;50.634;6.948;2022-07-17T14:50:38;33.80;40.40
37996;DHT22;23808;50.634;6.948;2022-07-17T14:54:38;33.30;40.60
37996;DHT22;23808;50.634;6.948;2022-07-17T14:58:39;33.00;41.00
37996;DHT22;23808;50.634;6.948;2022-07-17T15:02:40;32.90;40.80
37996;DHT22;23808;50.634;6.948;2022-07-17T15:06:41;33.20;40.40
37996;DHT22;23808;50.634;6.948;2022-07-17T15:10:42;32.90;39.60
37996;DHT22;23808;50.634;6.948;2022-07-17T15:14:45;32.70;41.10
37996;DHT22;23808;50.634;6.948;2022-07-17T15:18:46;32.60;40.90
37996;DHT22;23808;50.634;6.948;2022-07-17T15:22:47;32.80;41.00
37996;DHT22;23808;50.634;6.948;2022-07-17T15:26:48;32.90;40.60
37996;DHT22;23808;50.634;6.948;2022-07-17T15:30:49;33.10;41.00
37996;DHT22;23808;50.634;6.948;2022-07-17T15:34:49;33.40;40.60
37996;DHT22;23808;50.634;6.948;2022-07-17T15:38:55;33.40;40.60
37996;DHT22;23808;50.634;6.948;2022-07-17T15:42:56;33.40;40.40
37996;DHT22;23808;50.634;6.948;2022-07-17T15:46:57;33.30;40.40
37996;DHT22;23808;50.634;6.948;2022-07-17T15:50:57;33.10;40.10
37996;DHT22;23808;50.634;6.948;2022-07-17T15:54:58;33.00;40.30
37996;DHT22;23808;50.634;6.948;2022-07-17T15:58:58;33.00;40.30
37996;DHT22;23808;50.634;6.948;2022-07-17T16:02:59;33.20;41.30
37996;DHT22;23808;50.634;6.948;2022-07-17T16:06:59;33.20;41.20
37996;DHT22;23808;50.634;6.948;2022-07-17T16:11:00;32.90;41.60
37996;DHT22;23808;50.634;6.948;2022-07-17T16:15:01;32.80;42.60
37996;DHT22;23808;50.634;6.948;2022-07-17T16:19:02;32.40;42.20
37996;DHT22;23808;50.634;6.948;2022-07-17T16:23:03;32.30;44.20
37996;DHT22;23808;50.634;6.948;2022-07-17T16:27:04;32.30;43.60
37996;DHT22;23808;50.634;6.948;2022-07-17T16:31:04;32.40;42.80
37996;DHT22;23808;50.634;6.948;2022-07-17T16:35:06;32.30;42.70
37996;DHT22;23808;50.634;6.948;2022-07-17T16:39:06;32.40;43.30
37996;DHT22;23808;50.634;6.948;2022-07-17T16:43:08;32.50;43.00
37996;DHT22;23808;50.634;6.948;2022-07-17T16:47:09;32.60;42.70
37996;DHT22;23808;50.634;6.948;2022-07-17T16:51:09;32.40;42.80
37996;DHT22;23808;50.634;6.948;2022-07-17T16:55:10;32.20;42.60
37996;DHT22;23808;50.634;6.948;2022-07-17T16:59:11;32.10;42.70
37996;DHT22;23808;50.634;6.948;2022-07-17T17:03:11;31.90;42.30
37996;DHT22;23808;50.634;6.948;2022-07-17T17:07:12;31.80;41.10
37996;DHT22;23808;50.634;6.948;2022-07-17T17:11:12;31.40;41.20
37996;DHT22;23808;50.634;6.948;2022-07-17T17:15:13;31.20;42.10
37996;DHT22;23808;50.634;6.948;2022-07-17T17:19:14;31.00;41.90
37996;DHT22;23808;50.634;6.948;2022-07-17T17:23:15;30.90;42.10
37996;DHT22;23808;50.634;6.948;2022-07-17T17:27:16;30.70;41.90
37996;DHT22;23808;50.634;6.948;2022-07-17T17:31:17;30.40;42.00
37996;DHT22;23808;50.634;6.948;2022-07-17T17:35:18;30.00;42.90
37996;DHT22;23808;50.634;6.948;2022-07-17T17:39:18;29.90;42.90
37996;DHT22;23808;50.634;6.948;2022-07-17T17:43:19;29.90;43.00
37996;DHT22;23808;50.634;6.948;2022-07-17T17:47:20;30.00;42.60
37996;DHT22;23808;50.634;6.948;2022-07-17T17:51:20;30.00;41.80
37996;DHT22;23808;50.634;6.948;2022-07-17T17:55:21;29.90;42.80
37996;DHT22;23808;50.634;6.948;2022-07-17T17:59:22;29.90;43.10
37996;DHT22;23808;50.634;6.948;2022-07-17T18:03:23;29.90;42.60
37996;DHT22;23808;50.634;6.948;2022-07-17T18:07:24;29.70;42.70
37996;DHT22;23808;50.634;6.948;2022-07-17T18:11:24;29.40;42.60
37996;DHT22;23808;50.634;6.948;2022-07-17T18:15:26;29.20;43.60
37996;DHT22;23808;50.634;6.948;2022-07-17T18:19:27;29.10;44.40
37996;DHT22;23808;50.634;6.948;2022-07-17T18:23:27;29.10;43.60
37996;DHT22;23808;50.634;6.948;2022-07-17T18:27:28;29.10;44.00
37996;DHT22;23808;50.634;6.948;2022-07-17T18:31:29;29.10;45.10
37996;DHT22;23808;50.634;6.948;2022-07-17T18:35:29;29.00;43.60
37996;DHT22;23808;50.634;6.948;2022-07-17T18:39:31;29.00;45.20
37996;DHT22;23808;50.634;6.948;2022-07-17T18:43:32;28.80;44.90
37996;DHT22;23808;50.634;6.948;2022-07-17T18:47:33;28.80;45.60
37996;DHT22;23808;50.634;6.948;2022-07-17T18:51:34;28.60;47.20
37996;DHT22;23808;50.634;6.948;2022-07-17T18:55:35;28.40;48.30
37996;DHT22;23808;50.634;6.948;2022-07-17T18:59:37;28.10;46.50
37996;DHT22;23808;50.634;6.948;2022-07-17T19:03:37;27.80;47.20
37996;DHT22;23808;50.634;6.948;2022-07-17T19:07:41;27.40;47.00
37996;DHT22;23808;50.634;6.948;2022-07-17T19:11:41;27.10;48.30
37996;DHT22;23808;50.634;6.948;2022-07-17T19:15:42;26.80;51.30
37996;DHT22;23808;50.634;6.948;2022-07-17T19:19:45;26.50;52.60
37996;DHT22;23808;50.634;6.948;2022-07-17T19:23:46;26.10;52.70
37996;DHT22;23808;50.634;6.948;2022-07-17T19:27:47;25.80;52.50
37996;DHT22;23808;50.634;6.948;2022-07-17T19:31:47;25.50;54.10
37996;DHT22;23808;50.634;6.948;2022-07-17T19:35:48;25.30;55.50
37996;DHT22;23808;50.634;6.948;2022-07-17T19:39:49;25.00;56.10
37996;DHT22;23808;50.634;6.948;2022-07-17T19:43:50;24.80;57.60
37996;DHT22;23808;50.634;6.948;2022-07-17T19:47:50;24.50;58.20
37996;DHT22;23808;50.634;6.948;2022-07-17T19:51:51;24.30;59.50
37996;DHT22;23808;50.634;6.948;2022-07-17T19:55:52;24.20;60.40
37996;DHT22;23808;50.634;6.948;2022-07-17T20:00:12;23.90;60.40
37996;DHT22;23808;50.634;6.948;2022-07-17T20:04:13;23.60;60.90
37996;DHT22;23808;50.634;6.948;2022-07-17T20:08:13;23.40;62.40
37996;DHT22;23808;50.634;6.948;2022-07-17T20:12:14;23.30;61.50
37996;DHT22;23808;50.634;6.948;2022-07-17T20:16:15;23.10;62.10
37996;DHT22;23808;50.634;6.948;2022-07-17T20:20:15;23.00;61.90
37996;DHT22;23808;50.634;6.948;2022-07-17T20:24:16;22.80;62.50
37996;DHT22;23808;50.634;6.948;2022-07-17T20:28:17;22.60;63.40
37996;DHT22;23808;50.634;6.948;2022-07-17T20:32:18;22.50;62.60
37996;DHT22;23808;50.634;6.948;2022-07-17T20:36:18;22.30;64.20
37996;DHT22;23808;50.634;6.948;2022-07-17T20:40:20;22.20;64.60
37996;DHT22;23808;50.634;6.948;2022-07-17T20:44:20;22.00;64.90
37996;DHT22;23808;50.634;6.948;2022-07-17T20:48:22;21.80;63.90
37996;DHT22;23808;50.634;6.948;2022-07-17T20:52:23;21.80;64.40
37996;DHT22;23808;50.634;6.948;2022-07-17T20:56:24;21.60;64.00
37996;DHT22;23808;50.634;6.948;2022-07-17T21:00:25;21.50;65.10
37996;DHT22;23808;50.634;6.948;2022-07-17T21:04:25;21.40;64.30
37996;DHT22;23808;50.634;6.948;2022-07-17T21:08:27;21.30;64.70
37996;DHT22;23808;50.634;6.948;2022-07-17T21:12:28;21.20;64.80
37996;DHT22;23808;50.634;6.948;2022-07-17T21:16:29;21.10;65.20
37996;DHT22;23808;50.634;6.948;2022-07-17T21:20:29;21.00;66.30
37996;DHT22;23808;50.634;6.948;2022-07-17T21:24:31;20.90;66.60
37996;DHT22;23808;50.634;6.948;2022-07-17T21:28:32;20.80;66.60
37996;DHT22;23808;50.634;6.948;2022-07-17T21:32:33;20.70;65.90
37996;DHT22;23808;50.634;6.948;2022-07-17T21:36:33;20.60;66.90
37996;DHT22;23808;50.634;6.948;2022-07-17T21:40:34;20.50;67.00
37996;DHT22;23808;50.634;6.948;2022-07-17T21:44:35;20.50;67.00
37996;DHT22;23808;50.634;6.948;2022-07-17T21:48:35;20.40;67.90
37996;DHT22;23808;50.634;6.948;2022-07-17T21:52:36;20.30;68.60
37996;DHT22;23808;50.634;6.948;2022-07-17T21:56:36;20.20;67.80
37996;DHT22;23808;50.634;6.948;2022-07-17T22:00:37;20.20;67.10
37996;DHT22;23808;50.634;6.948;2022-07-17T22:04:38;20.10;67.40
37996;DHT22;23808;50.634;6.948;2022-07-17T22:08:39;20.10;68.30
37996;DHT22;23808;50.634;6.948;2022-07-17T22:12:41;20.00;67.60
37996;DHT22;23808;50.634;6.948;2022-07-17T22:16:42;20.00;67.10
37996;DHT22;23808;50.634;6.948;2022-07-17T22:20:42;19.90;68.40
37996;DHT22;23808;50.634;6.948;2022-07-17T22:24:44;19.80;68.80
37996;DHT22;23808;50.634;6.948;2022-07-17T22:28:44;19.70;70.00
37996;DHT22;23808;50.634;6.948;2022-07-17T22:32:45;19.60;70.90
37996;DHT22;23808;50.634;6.948;2022-07-17T22:36:46;19.50;72.30
37996;DHT22;23808;50.634;6.948;2022-07-17T22:40:47;19.40;72.80
37996;DHT22;23808;50.634;6.948;2022-07-17T22:44:47;19.20;73.50
37996;DHT22;23808;50.634;6.948;2022-07-17T22:48:48;19.10;72.80
37996;DHT22;23808;50.634;6.948;2022-07-17T22:52:49;19.00;73.60
37996;DHT22;23808;50.634;6.948;2022-07-17T22:56:49;18.90;73.20
37996;DHT22;23808;50.634;6.948;2022-07-17T23:00:50;18.90;75.50
37996;DHT22;23808;50.634;6.948;2022-07-17T23:04:51;18.80;75.20
37996;DHT22;23808;50.634;6.948;2022-07-17T23:08:52;18.70;75.30
37996;DHT22;23808;50.634;6.948;2022-07-17T23:12:53;18.60;75.80
37996;DHT22;23808;50.634;6.948;2022-07-17T23:16:53;18.60;76.60
37996;DHT22;23808;50.634;6.948;2022-07-17T23:20:54;18.50;78.10
37996;DHT22;23808;50.634;6.948;2022-07-17T23:24:54;18.50;78.00
37996;DHT22;23808;50.634;6.948;2022-07-17T23:28:55;18.40;77.60
37996;DHT22;23808;50.634;6.948;2022-07-17T23:32:56;18.40;77.50
37996;DHT22;23808;50.634;6.948;2022-07-17T23:36:56;18.30;78.50
37996;DHT22;23808;50.634;6.948;2022-07-17T23:40:57;18.20;78.20
37996;DHT22;23808;50.634;6.948;2022-07-17T23:44:57;18.20;78.90
37996;DHT22;23808;50.634;6.948;2022-07-17T23:48:58;18.10;79.70
37996;DHT22;23808;50.634;6.948;2022-07-17T23:52:59;18.10;78.50
37996;DHT22;23808;50.634;6.948;2022-07-17T23:56:59;18.00;77.60
